Terminal Aerodrome Forecast
Issued by NWS

Home | Current Version | Previous Version | Text Only | Print | Product List | Glossary On
Versions: 1 2 3 4 5 6 7 8 9 10 11 12 13 14
000
FTPA31 PHFO 251737
TAFHJR
TAF
PHJR 251737Z 2518/2618 05006KT P6SM FEW045 BKN070
     FM252000 08009G15KT P6SM VCSH FEW045 BKN070
     FM260600 VRB03KT P6SM FEW045 SCT070=

USA.gov is the U.S. government's official web portal to all federal, state and local government web resources and services.